Latest Weather Observations for Nambour

IDQ60901

Issued at 5:25 pm EST Saturday 1 November 2014 (issued every 10 minutes, with the page automatically refreshed every 10 minutes)

About weather observations | Map of Brisbane area stations | Latest observations for Brisbane area | Other Formats
Station Details ID: 040988 Name: NAMBOUR DAFF - HILLSIDE Lat: -26.64 Lon: 152.94 Height: 53.24 m
Data from the previous 72 hours. | See also: Recent months at Nambour
Date/Time
EST
Tmp

°C
App
Tmp
°C
Dew
Point
°C
Rel
Hum
%
Delta-T

°C
Wind Press
QNH
hPa
Press
MSL
hPa
Rain
since
9 am
mm
Dir
 
Spd
km/h
Gust
km/h
Spd
kts
Gust
kts
01/05:00pm 27.1 27.0 17.8 56 5.9 NNE 15 24 8 13 1009.4 1009.1 0.0
01/04:30pm 27.4 27.0 18.1 57 5.9 NNE 17 32 9 17 1009.4 1009.1 0.0
01/04:00pm 27.8 27.7 17.9 54 6.3 NNE 15 26 8 14 1009.4 1009.1 0.0
01/03:30pm 28.4 28.3 17.9 53 6.7 N 15 22 8 12 1009.6 1009.3 0.0
01/03:00pm 28.3 27.3 17.5 52 6.8 NE 19 28 10 15 1010.0 1009.7 0.0
01/02:30pm 28.6 28.4 17.5 51 7.0 NE 15 26 8 14 1010.4 1010.1 0.0
01/02:00pm 29.0 28.9 17.8 50 7.1 NE 15 28 8 15 1010.8 1010.5 0.0
01/01:30pm 28.4 27.3 17.3 51 7.0 NE 19 30 10 16 1011.4 1011.1 0.0
01/01:00pm 28.9 27.7 17.4 49 7.3 NNE 20 28 11 15 1012.0 1011.8 0.0
01/12:30pm 30.5 29.6 15.8 41 9.1 NNE 15 30 8 16 1012.2 1012.0 0.0
01/12:00pm 29.5 28.7 15.2 41 8.8 NNE 13 22 7 12 1012.9 1012.7 0.0
01/11:30am 29.2 29.0 15.7 44 8.3 N 11 20 6 11 1014.0 1013.8 0.0
01/11:00am 28.6 28.6 15.2 44 8.2 NW 9 15 5 8 1014.8 1014.6 0.0
01/10:30am 27.4 27.7 15.1 47 7.5 N 7 15 4 8 1015.5 1015.3 0.0
01/10:00am 26.2 26.1 15.9 53 6.3 NW 11 22 6 12 1016.2 1016.0 0.0
01/09:30am 26.1 26.2 16.6 55 5.9 WNW 11 20 6 11 1016.6 1016.4 0.0
01/09:00am 25.5 25.3 16.6 58 5.5 NW 13 20 7 11 1015.9 1015.7 0.0
01/08:30am 25.3 25.3 17.2 61 5.0 N 13 22 7 12 1015.9 1015.7 0.0
01/08:00am 24.1 24.3 17.6 67 4.1 N 13 24 7 13 1016.0 1015.8 0.0
01/07:30am 23.5 24.7 18.2 72 3.3 N 9 15 5 8 1016.2 1016.0 0.0
01/07:00am 22.5 23.8 18.5 78 2.5 NNE 9 13 5 7 1015.8 1015.6 0.0
01/06:30am 21.2 23.6 18.9 87 1.5 NE 4 4 2 2 1016.0 1015.8 0.0
01/06:00am 19.7 22.5 18.0 90 1.0 CALM 0 0 0 0 1015.8 1015.6 0.0
01/05:30am 18.9 21.3 17.9 94 0.6 NNW 2 4 1 2 1015.5 1015.3 0.0
01/05:00am 18.9 21.6 17.7 93 0.7 CALM 0 0 0 0 1015.1 1014.9 0.0
01/04:30am 18.9 21.4 17.2 90 1.0 CALM 0 0 0 0 1015.0 1014.8 0.0
01/04:00am 19.3 21.9 17.6 90 1.0 CALM 0 0 0 0 1014.8 1014.6 0.0
01/03:30am 19.6 22.0 17.9 90 1.0 NW 2 4 1 2 1014.5 1014.3 0.0
01/03:00am 19.8 21.8 17.9 89 1.2 N 4 6 2 3 1014.2 1014.0 0.0
01/02:30am 20.2 22.3 18.1 88 1.3 N 4 6 2 3 1014.5 1014.3 0.0
01/02:00am 20.4 22.6 18.3 88 1.3 N 4 6 2 3 1014.7 1014.5 0.0
01/01:30am 20.5 22.7 18.3 87 1.4 N 4 4 2 2 1014.8 1014.6 0.0
01/01:00am 20.6 22.8 18.4 87 1.4 N 4 6 2 3 1015.1 1014.9 0.0
01/12:30am 20.6 23.0 18.0 85 1.6 N 2 4 1 2 1015.0 1014.8 0.0
01/12:00am 21.0 23.4 18.0 83 1.9 N 2 4 1 2 1015.4 1015.2 0.0
 
Date/Time
EST
Tmp

°C
App
Tmp
°C
Dew
Point
°C
Rel
Hum
%
Delta-T

°C
Wind Press
QNH
hPa
Press
MSL
hPa
Rain
since
9 am
mm
Dir
 
Spd
km/h
Gust
km/h
Spd
kts
Gust
kts
31/11:30pm 21.1 23.6 18.1 83 1.9 N 2 6 1 3 1015.7 1015.5 0.0
31/11:00pm 21.6 23.9 18.6 83 1.9 N 4 6 2 3 1016.2 1016.0 0.0
31/10:30pm 21.7 24.0 18.5 82 2.0 NNW 4 7 2 4 1016.3 1016.1 0.0
31/10:00pm 22.3 24.3 18.7 80 2.3 N 6 11 3 6 1016.5 1016.3 0.0
31/09:30pm 22.4 24.3 18.6 79 2.4 N 6 13 3 7 1016.4 1016.2 0.0
31/09:00pm 22.4 24.2 18.4 78 2.5 N 6 11 3 6 1016.3 1016.1 0.0
31/08:30pm 22.6 24.3 18.4 77 2.6 N 7 11 4 6 1016.0 1015.8 0.0
31/08:00pm 22.3 24.2 18.5 79 2.4 N 6 11 3 6 1015.7 1015.5 0.0
31/07:30pm 22.7 24.4 18.5 77 2.6 N 7 13 4 7 1015.7 1015.5 0.0
31/07:00pm 22.8 24.2 17.9 74 3.1 N 7 11 4 6 1015.3 1015.1 0.0
31/06:30pm 23.2 24.3 17.9 72 3.3 NNE 9 20 5 11 1014.7 1014.5 0.0
31/06:00pm 23.6 24.5 17.6 69 3.7 NNE 9 17 5 9 1014.6 1014.4 0.0
31/05:30pm 24.3 24.8 17.5 66 4.2 NNE 11 19 6 10 1014.2 1014.0 0.0
31/05:00pm 24.9 24.2 16.3 59 5.3 NNE 15 22 8 12 1014.1 1013.9 0.0
31/04:30pm 25.9 26.2 17.0 58 5.5 N 11 20 6 11 1014.0 1013.8 0.0
31/04:00pm 26.3 26.3 17.1 57 5.7 NE 13 20 7 11 1013.7 1013.5 0.0
31/03:30pm 27.0 26.9 17.8 57 5.8 ENE 15 24 8 13 1013.7 1013.5 0.0
31/03:00pm 27.2 26.0 17.4 55 6.2 E 20 28 11 15 1013.7 1013.5 0.0
31/02:30pm 27.4 26.3 17.3 54 6.3 ENE 19 30 10 16 1013.9 1013.7 0.0
31/02:00pm 27.1 25.7 17.0 54 6.3 ENE 20 33 11 18 1014.1 1013.9 0.0
31/01:30pm 27.8 26.6 17.6 53 6.4 E 20 30 11 16 1014.2 1014.0 0.0
31/01:00pm 28.4 27.6 17.9 53 6.7 ENE 19 32 10 17 1014.6 1014.4 0.0
31/12:30pm 28.9 28.7 18.4 53 6.7 ENE 17 30 9 16 1014.8 1014.6 0.0
31/12:00pm 28.8 29.3 18.3 53 6.7 ENE 13 26 7 14 1015.3 1015.1 0.0
31/11:30am 29.0 29.4 16.2 46 8.0 NNE 9 19 5 10 1015.6 1015.4 0.0
31/11:00am 28.2 28.9 16.1 47 7.5 ENE 7 17 4 9 1016.1 1015.9 0.0
31/10:30am 27.5 28.4 16.5 51 6.8 NW 7 15 4 8 1016.4 1016.2 0.0
31/10:00am 26.6 27.5 16.5 54 6.2 NNW 7 11 4 6 1016.9 1016.7 0.0
31/09:30am 26.1 27.1 16.9 57 5.7 N 7 13 4 7 1017.1 1016.9 0.0
31/09:00am 26.0 26.6 16.8 57 5.7 NNE 9 13 5 7 1017.3 1017.1 0.0
31/08:30am 25.0 25.6 16.7 60 5.1 N 9 19 5 10 1017.5 1017.3 0.0
31/08:00am 24.7 25.8 17.2 63 4.7 NW 7 13 4 7 1017.4 1017.2 0.0
31/07:30am 23.8 25.9 18.9 74 3.1 N 6 7 3 4 1017.5 1017.3 0.0
31/07:00am 22.8 26.1 19.2 80 2.3 CALM 0 4 0 2 1017.3 1017.1 0.0
31/06:30am 22.3 25.9 19.8 86 1.6 CALM 0 0 0 0 1017.1 1016.9 0.0
31/06:00am 21.6 25.2 19.7 89 1.2 CALM 0 0 0 0 1016.8 1016.6 0.0
31/05:30am 21.0 24.3 19.1 89 1.2 CALM 0 0 0 0 1016.4 1016.2 0.0
31/05:00am 20.8 24.0 18.9 89 1.2 CALM 0 0 0 0 1016.1 1015.9 0.0
31/04:30am 21.0 24.1 18.6 86 1.5 CALM 0 0 0 0 1015.6 1015.4 0.0
31/04:00am 21.8 25.1 19.0 84 1.8 CALM 0 2 0 1 1015.5 1015.3 0.0
31/03:30am 21.9 24.7 18.9 83 1.9 NNW 2 7 1 4 1015.1 1014.9 0.0
31/03:00am 21.9 25.1 18.9 83 1.9 CALM 0 0 0 0 1015.1 1014.9 0.0
31/02:30am 21.9 25.1 18.9 83 1.9 CALM 0 0 0 0 1015.2 1015.0 0.0
31/02:00am 21.9 25.0 18.7 82 2.0 CALM 0 0 0 0 1015.3 1015.1 0.0
31/01:30am 22.1 25.3 18.9 82 2.0 CALM 0 0 0 0 1015.3 1015.1 0.0
31/01:00am 22.1 25.3 18.9 82 2.0 CALM 0 0 0 0 1015.5 1015.3 0.0
31/12:30am 22.0 25.2 18.8 82 2.0 CALM 0 0 0 0 1015.6 1015.4 0.0
31/12:00am 22.0 25.2 18.8 82 2.0 CALM 0 0 0 0 1015.7 1015.5 0.0
 
Date/Time
EST
Tmp

°C
App
Tmp
°C
Dew
Point
°C
Rel
Hum
%
Delta-T

°C
Wind Press
QNH
hPa
Press
MSL
hPa
Rain
since
9 am
mm
Dir
 
Spd
km/h
Gust
km/h
Spd
kts
Gust
kts
30/11:30pm 22.1 25.3 18.9 82 2.0 CALM 0 0 0 0 1016.1 1015.9 0.0
30/11:00pm 22.2 25.4 18.8 81 2.1 CALM 0 0 0 0 1016.5 1016.3 0.0
30/10:30pm 22.3 25.5 18.9 81 2.2 CALM 0 2 0 1 1016.5 1016.3 0.0
30/10:00pm 22.1 24.9 18.9 82 2.0 NW 2 4 1 2 1016.7 1016.5 0.0
30/09:30pm 21.8 24.9 18.6 82 2.0 CALM 0 2 0 1 1016.6 1016.4 0.0
30/09:00pm 21.8 24.4 18.4 81 2.1 NW 2 4 1 2 1016.6 1016.4 0.0
30/08:30pm 22.3 24.9 18.5 79 2.4 N 2 4 1 2 1016.3 1016.1 0.0
30/08:00pm 22.2 24.8 18.4 79 2.4 N 2 4 1 2 1016.1 1015.9 0.0
30/07:30pm 22.5 24.9 18.7 79 2.4 NNE 4 7 2 4 1016.0 1015.8 0.0
30/07:00pm 22.8 25.2 18.8 78 2.5 NE 4 6 2 3 1015.5 1015.3 0.0
30/06:30pm 22.8 24.2 18.6 77 2.7 E 9 15 5 8 1015.2 1015.0 0.0
30/06:00pm 23.0 24.2 18.3 75 3.0 ENE 9 15 5 8 1014.8 1014.6 0.0
30/05:30pm 23.3 24.6 18.4 74 3.1 E 9 17 5 9 1014.6 1014.4 0.0
30/05:00pm 24.0 25.2 18.2 70 3.7 ENE 9 19 5 10 1014.4 1014.2 0.0
30/04:30pm 24.3 24.6 17.8 67 4.1 ENE 13 17 7 9 1014.1 1013.9 0.0
30/04:00pm 24.8 24.7 17.8 65 4.4 ENE 15 20 8 11 1013.9 1013.7 0.0
30/03:30pm 25.2 25.4 17.7 63 4.7 ENE 13 22 7 12 1013.9 1013.7 0.0
30/03:00pm 26.3 26.5 17.6 58 5.5 ENE 13 22 7 12 1013.8 1013.6 0.0
30/02:30pm 26.8 27.0 17.6 57 5.8 E 13 22 7 12 1013.9 1013.7 0.0
30/02:00pm 27.1 27.4 18.7 60 5.4 E 15 20 8 11 1014.1 1013.9 0.0
30/01:30pm 26.4 25.4 17.5 58 5.6 E 19 28 10 15 1014.6 1014.4 0.0
30/01:00pm 26.9 26.6 17.4 56 6.0 E 15 24 8 13 1014.9 1014.7 0.0
30/12:30pm 27.4 27.4 17.3 54 6.3 ENE 13 20 7 11 1015.3 1015.1 0.0
30/12:00pm 27.8 27.6 17.6 53 6.4 E 15 26 8 14 1015.8 1015.6 0.0
30/11:30am 27.7 27.6 16.0 49 7.2 NE 11 19 6 10 1016.1 1015.9 0.0
30/11:00am 27.7 29.2 16.6 50 6.9 E 4 11 2 6 1016.6 1016.4 0.0
30/10:30am 26.7 27.1 16.3 53 6.4 E 9 19 5 10 1017.0 1016.8 0.0
30/10:00am 25.6 26.4 15.9 55 5.9 WSW 6 11 3 6 1017.4 1017.2 0.0
30/09:30am 24.9 26.6 16.3 59 5.3 WSW 2 6 1 3 1017.7 1017.5 0.0
30/09:00am 25.2 26.2 16.4 58 5.4 E 6 11 3 6 1017.9 1017.7 -
30/08:30am 24.0 24.9 16.5 63 4.6 E 7 15 4 8 1018.2 1018.0 -
30/08:00am 24.3 25.9 16.8 63 4.6 SSE 4 11 2 6 1018.1 1017.9 -
30/07:30am 23.7 25.3 17.0 66 4.1 E 4 9 2 5 1018.0 1017.8 -
30/07:00am 22.3 24.0 16.3 69 3.6 SSW 2 6 1 3 1017.9 1017.7 -
30/06:30am 21.4 23.1 16.1 72 3.2 ESE 2 4 1 2 1017.8 1017.6 -
30/06:00am 20.7 22.9 16.5 77 2.5 CALM 0 4 0 2 1017.4 1017.2 -
30/05:30am 18.9 20.7 15.6 81 2.0 CALM 0 4 0 2 1016.8 1016.6 -
30/05:00am 18.7 20.3 14.8 78 2.3 CALM 0 2 0 1 1016.5 1016.3 -
30/04:30am 19.0 20.6 14.9 77 2.4 CALM 0 6 0 3 1016.2 1016.0 -
30/04:00am 19.1 20.7 15.0 77 2.4 CALM 0 0 0 0 1016.0 1015.8 -
30/03:30am 19.4 21.0 14.9 75 2.6 CALM 0 0 0 0 1015.9 1015.7 -
30/03:00am 19.7 21.3 14.9 74 2.8 CALM 0 2 0 1 1015.8 1015.6 0.0
30/02:30am 20.2 22.0 15.6 75 2.7 CALM 0 2 0 1 1015.9 1015.7 -
30/02:00am 20.0 22.1 16.2 79 2.3 CALM 0 0 0 0 1016.0 1015.8 -
30/01:30am 19.5 21.2 16.3 82 1.9 SW 2 4 1 2 1016.0 1015.8 -
30/01:00am 19.5 21.2 16.3 82 1.9 SW 2 6 1 3 1016.2 1016.0 -
30/12:30am 19.6 21.8 16.4 82 1.9 CALM 0 0 0 0 1016.3 1016.1 -
30/12:00am 20.1 22.4 16.7 81 2.1 CALM 0 4 0 2 1016.7 1016.5 -
 
Date/Time
EST
Tmp

°C
App
Tmp
°C
Dew
Point
°C
Rel
Hum
%
Delta-T

°C
Wind Press
QNH
hPa
Press
MSL
hPa
Rain
since
9 am
mm
Dir
 
Spd
km/h
Gust
km/h
Spd
kts
Gust
kts
29/11:30pm 20.7 22.9 16.5 77 2.5 CALM 0 0 0 0 1017.0 1016.8 -
29/11:00pm 21.7 24.1 16.9 74 2.9 CALM 0 4 0 2 1017.2 1017.0 -
29/10:30pm 22.2 24.5 17.8 76 2.7 ESE 2 6 1 3 1017.4 1017.2 -
29/10:00pm 22.1 24.2 18.1 78 2.5 SE 4 6 2 3 1017.3 1017.1 -
29/09:30pm 22.3 24.9 18.3 78 2.5 SE 2 6 1 3 1017.2 1017.0 -
29/09:00pm 22.4 24.9 18.2 77 2.6 SE 2 9 1 5 1017.2 1017.0 0.0
29/08:30pm 22.5 25.0 18.1 76 2.8 ESE 2 6 1 3 1017.1 1016.9 -
29/08:00pm 22.5 24.8 17.8 75 2.9 ESE 2 9 1 5 1016.8 1016.6 -
29/07:30pm 22.6 24.5 17.7 74 3.0 ESE 4 11 2 6 1016.6 1016.4 -
29/07:00pm 22.6 24.4 17.3 72 3.3 ESE 4 7 2 4 1016.3 1016.1 -
29/06:30pm 22.5 24.1 16.8 70 3.5 SE 4 7 2 4 1016.1 1015.9 -
29/06:00pm 22.7 23.8 16.5 68 3.8 ESE 6 11 3 6 1015.8 1015.6 -
29/05:30pm 23.2 23.4 16.7 67 4.0 E 11 19 6 10 1015.3 1015.1 -

Latest Capital City Observations: Canberra | Sydney | Melbourne | Brisbane | Adelaide | Perth | Hobart | Darwin

Other Formats:

Comma delimited format used in spreadsheet applications
http://www.bom.gov.au/fwo/IDQ60901/IDQ60901.95572.axf

JavaScript Object Notation format (JSON) in row-major order
http://www.bom.gov.au/fwo/IDQ60901/IDQ60901.95572.json